createdAt,value
2023-05-16T00:00:49.166Z,0.10
2023-05-16T00:02:23.057Z,0.10
2023-05-16T00:03:58.334Z,0.10
2023-05-16T00:05:32.048Z,0.10
2023-05-16T00:07:06.078Z,0.20
2023-05-16T00:08:39.748Z,0.10
2023-05-16T00:10:14.069Z,0.10
2023-05-16T00:11:48.797Z,0.10
2023-05-16T00:13:25.563Z,0.10
2023-05-16T00:14:59.775Z,0.10
2023-05-16T00:16:37.617Z,0.10
2023-05-16T00:18:15.193Z,0.20
2023-05-16T00:19:49.554Z,0.10
2023-05-16T00:21:23.756Z,0.10
2023-05-16T00:23:01.563Z,0.20
2023-05-16T00:24:35.696Z,0.10
2023-05-16T00:26:09.688Z,0.10
2023-05-16T00:27:46.518Z,0.10
2023-05-16T00:29:20.702Z,0.10
2023-05-16T00:30:54.412Z,0.10
2023-05-16T00:32:29.987Z,0.10
2023-05-16T00:34:03.554Z,0.10
2023-05-16T00:35:40.186Z,0.10
2023-05-16T00:37:14.321Z,0.10
2023-05-16T00:38:48.135Z,0.10
2023-05-16T00:40:21.901Z,0.10
2023-05-16T00:41:58.212Z,0.17
2023-05-16T00:43:31.685Z,0.20
2023-05-16T00:45:06.756Z,0.10
2023-05-16T00:46:40.575Z,0.10
2023-05-16T00:48:16.238Z,0.10
2023-05-16T00:49:49.932Z,0.10
2023-05-16T00:51:23.578Z,0.10
2023-05-16T00:52:57.266Z,0.10
2023-05-16T00:54:31.654Z,0.10
2023-05-16T00:56:07.367Z,0.10
2023-05-16T00:57:41.635Z,0.10
2023-05-16T00:59:16.192Z,0.10
2023-05-16T01:00:50.311Z,0.10
2023-05-16T01:02:28.812Z,0.13
2023-05-16T01:04:02.772Z,0.10
2023-05-16T01:05:36.565Z,0.10
2023-05-16T01:07:10.167Z,0.10
2023-05-16T01:08:43.303Z,0.10
2023-05-16T01:10:17.191Z,0.10
2023-05-16T01:12:14.339Z,0.10
2023-05-16T01:14:02.748Z,0.10
2023-05-16T01:16:01.162Z,0.10
2023-05-16T01:17:52.728Z,0.10
2023-05-16T01:19:52.896Z,0.10
2023-05-16T01:21:49.466Z,0.10
2023-05-16T01:23:38.946Z,0.10
2023-05-16T01:25:51.071Z,0.10
2023-05-16T01:27:30.370Z,0.10
2023-05-16T01:29:06.317Z,0.10
2023-05-16T01:30:44.127Z,0.10
2023-05-16T01:32:17.991Z,0.05
2023-05-16T01:33:52.270Z,0.10
2023-05-16T01:35:26.144Z,0.10
2023-05-16T01:37:20.048Z,0.00
2023-05-16T01:39:16.325Z,0.00
2023-05-16T01:40:52.468Z,0.10
2023-05-16T01:42:30.616Z,0.10
2023-05-16T01:44:12.102Z,0.00
2023-05-16T01:45:54.927Z,0.10
2023-05-16T01:47:30.988Z,0.10
2023-05-16T01:49:31.331Z,0.00
2023-05-16T01:51:05.390Z,0.00
2023-05-16T01:52:53.561Z,0.10
2023-05-16T01:54:32.157Z,0.00
2023-05-16T01:56:09.921Z,0.00
2023-05-16T01:57:45.807Z,0.05
2023-05-16T01:59:24.630Z,0.00
2023-05-16T02:01:06.970Z,0.03
2023-05-16T02:02:40.534Z,0.00
2023-05-16T02:04:16.421Z,0.00
2023-05-16T02:05:50.903Z,0.00
2023-05-16T02:07:24.380Z,0.00
2023-05-16T02:08:57.717Z,0.00
2023-05-16T02:10:31.887Z,0.00
2023-05-16T02:12:06.522Z,0.00
2023-05-16T02:13:40.209Z,0.00
2023-05-16T02:15:15.532Z,0.00
2023-05-16T02:16:49.486Z,0.00
2023-05-16T02:18:24.033Z,0.00
2023-05-16T02:19:57.686Z,0.00
2023-05-16T02:21:31.579Z,0.00
2023-05-16T02:23:05.272Z,0.00
2023-05-16T02:24:38.958Z,0.00
2023-05-16T02:26:12.244Z,0.00
2023-05-16T02:27:45.833Z,0.00
2023-05-16T02:29:19.324Z,0.00
2023-05-16T02:31:02.513Z,0.00
2023-05-16T02:32:35.849Z,0.00
2023-05-16T02:34:09.577Z,0.00
2023-05-16T02:35:43.685Z,0.00
2023-05-16T02:37:17.705Z,0.00
2023-05-16T02:38:51.230Z,0.00
2023-05-16T02:40:41.364Z,0.00
2023-05-16T02:42:16.075Z,0.00
2023-05-16T02:43:49.861Z,0.00
2023-05-16T02:45:23.605Z,0.00
2023-05-16T02:46:57.261Z,0.00
2023-05-16T02:48:31.120Z,0.00
2023-05-16T02:50:05.605Z,0.00
2023-05-16T02:51:40.461Z,0.00
2023-05-16T02:53:14.177Z,0.00
2023-05-16T02:54:59.862Z,0.00
2023-05-16T02:56:40.929Z,0.00
2023-05-16T02:58:14.954Z,0.00
2023-05-16T02:59:48.072Z,0.00
2023-05-16T03:01:22.464Z,0.00
2023-05-16T03:02:56.573Z,0.00
2023-05-16T03:04:30.089Z,0.00
2023-05-16T03:06:04.193Z,0.00
2023-05-16T03:07:40.053Z,0.00
2023-05-16T03:09:14.189Z,0.00
2023-05-16T03:10:49.973Z,0.00
2023-05-16T03:12:24.158Z,0.00
2023-05-16T03:14:01.581Z,0.00
2023-05-16T03:15:35.136Z,0.00
2023-05-16T03:17:09.759Z,0.00
2023-05-16T03:18:43.677Z,0.00
2023-05-16T03:20:18.040Z,0.00
2023-05-16T03:21:52.004Z,0.00
2023-05-16T03:23:25.737Z,0.00
2023-05-16T03:24:59.078Z,0.00
2023-05-16T03:26:32.503Z,0.00
2023-05-16T03:28:08.930Z,0.00
2023-05-16T03:29:42.454Z,0.00
2023-05-16T03:31:16.194Z,0.00
2023-05-16T03:32:49.835Z,0.00
2023-05-16T03:34:23.383Z,0.00
2023-05-16T03:35:56.942Z,0.00
2023-05-16T03:37:31.006Z,0.00
2023-05-16T03:39:04.534Z,0.00
2023-05-16T03:40:37.758Z,0.00
2023-05-16T03:42:11.155Z,0.00
2023-05-16T03:43:44.446Z,0.00
2023-05-16T03:45:18.355Z,0.00
2023-05-16T03:46:53.113Z,0.00
2023-05-16T03:48:26.621Z,0.00
2023-05-16T03:50:00.242Z,0.00
2023-05-16T03:51:34.614Z,0.00
2023-05-16T03:53:08.483Z,0.00
2023-05-16T03:54:41.823Z,0.00
2023-05-16T03:56:15.384Z,0.00
2023-05-16T03:57:50.351Z,0.00
2023-05-16T03:59:23.845Z,0.00
2023-05-16T04:00:57.868Z,0.00
2023-05-16T04:02:31.633Z,0.00
2023-05-16T04:04:05.544Z,0.00
2023-05-16T04:05:39.145Z,0.00
2023-05-16T04:07:12.600Z,0.00
2023-05-16T04:08:46.318Z,0.00
2023-05-16T04:10:19.420Z,0.00
2023-05-16T04:11:53.797Z,0.00
2023-05-16T04:13:28.163Z,0.00
2023-05-16T04:15:01.769Z,0.00
2023-05-16T04:16:38.118Z,0.00
2023-05-16T04:18:11.400Z,0.00
2023-05-16T04:19:45.107Z,0.00
2023-05-16T04:21:18.686Z,0.00
2023-05-16T04:22:52.305Z,0.00
2023-05-16T04:24:30.406Z,0.00
2023-05-16T04:26:05.148Z,0.00
2023-05-16T04:27:41.511Z,0.00
2023-05-16T04:29:15.130Z,0.00
2023-05-16T04:30:49.186Z,0.00
2023-05-16T04:32:24.434Z,0.00
2023-05-16T04:34:01.351Z,0.00
2023-05-16T04:35:34.738Z,0.00
2023-05-16T04:37:08.831Z,0.00
2023-05-16T04:38:45.159Z,0.00
2023-05-16T04:40:21.959Z,0.00
2023-05-16T04:41:59.673Z,0.00
2023-05-16T04:43:33.707Z,0.00
2023-05-16T04:45:11.233Z,0.00
2023-05-16T04:46:44.486Z,0.00
2023-05-16T04:48:17.936Z,0.00
2023-05-16T04:49:51.575Z,0.00
2023-05-16T04:51:25.001Z,0.00
2023-05-16T04:52:59.340Z,0.00
2023-05-16T04:54:35.750Z,0.00
2023-05-16T04:56:09.322Z,0.00
2023-05-16T04:57:42.678Z,0.00
2023-05-16T04:59:16.337Z,0.00
2023-05-16T05:00:52.903Z,0.00
2023-05-16T05:02:29.964Z,0.00
2023-05-16T05:04:03.549Z,0.00
2023-05-16T05:05:37.456Z,0.00
2023-05-16T05:07:11.205Z,0.00
2023-05-16T05:08:45.069Z,0.00
2023-05-16T05:10:19.110Z,0.00
2023-05-16T05:11:53.197Z,0.00
2023-05-16T05:13:26.687Z,0.00
2023-05-16T05:15:00.631Z,0.00
2023-05-16T05:16:35.327Z,0.00
2023-05-16T05:18:08.937Z,0.00
2023-05-16T05:19:43.144Z,0.00
2023-05-16T05:21:20.759Z,0.00
2023-05-16T05:22:54.090Z,0.00
2023-05-16T05:24:27.677Z,0.00
2023-05-16T05:26:01.176Z,0.00
2023-05-16T05:27:34.742Z,0.00
2023-05-16T05:29:09.235Z,0.00
2023-05-16T05:30:43.326Z,0.00
2023-05-16T05:32:17.606Z,0.00
2023-05-16T05:33:51.124Z,0.00
2023-05-16T05:35:24.612Z,0.00
2023-05-16T05:36:57.794Z,0.00
2023-05-16T05:38:31.017Z,0.00
2023-05-16T05:40:04.710Z,0.00
2023-05-16T05:41:39.531Z,0.00
2023-05-16T05:43:13.017Z,0.00
2023-05-16T05:44:46.039Z,0.00
2023-05-16T05:46:19.453Z,0.00
2023-05-16T05:47:52.867Z,0.00
2023-05-16T05:49:27.632Z,0.00
2023-05-16T05:51:04.181Z,0.00
2023-05-16T05:52:37.281Z,0.00
2023-05-16T05:54:11.007Z,0.00
2023-05-16T05:55:44.079Z,0.00
2023-05-16T05:57:17.625Z,0.00
2023-05-16T05:58:51.822Z,0.00
2023-05-16T06:00:25.497Z,0.00
2023-05-16T06:01:59.542Z,0.00
2023-05-16T06:03:32.937Z,0.00
2023-05-16T06:05:07.722Z,0.00
2023-05-16T06:06:43.970Z,0.00
2023-05-16T06:08:17.704Z,0.00
2023-05-16T06:09:52.625Z,0.00
2023-05-16T06:11:26.499Z,0.00
2023-05-16T06:13:00.197Z,0.00
2023-05-16T06:14:33.759Z,0.00
2023-05-16T06:16:11.017Z,0.00
2023-05-16T06:17:44.617Z,0.00
2023-05-16T06:19:18.438Z,0.00
2023-05-16T06:20:53.589Z,0.00
2023-05-16T06:22:27.271Z,0.00
2023-05-16T06:24:03.937Z,0.00
2023-05-16T06:25:58.299Z,0.00
2023-05-16T06:27:31.898Z,0.00
2023-05-16T06:29:04.997Z,0.00
2023-05-16T06:30:39.800Z,0.00
2023-05-16T06:32:33.701Z,0.00
2023-05-16T06:34:07.489Z,0.00
2023-05-16T06:35:41.304Z,0.00
2023-05-16T06:37:14.536Z,0.00
2023-05-16T06:38:47.813Z,0.00
2023-05-16T06:40:21.116Z,0.00
2023-05-16T06:41:56.346Z,0.00
2023-05-16T06:43:30.227Z,0.00
2023-05-16T06:45:03.750Z,0.00
2023-05-16T06:46:40.251Z,0.00
2023-05-16T06:48:17.883Z,0.00
2023-05-16T06:49:51.356Z,0.00
2023-05-16T06:51:24.730Z,0.00
2023-05-16T06:52:58.917Z,0.00
2023-05-16T06:54:32.664Z,0.00
2023-05-16T06:56:06.257Z,0.00
2023-05-16T06:57:39.581Z,0.00
2023-05-16T06:59:13.650Z,0.00
2023-05-16T07:00:47.056Z,0.00
2023-05-16T07:02:20.430Z,0.00
2023-05-16T07:03:54.485Z,0.00
2023-05-16T07:05:28.144Z,0.00
2023-05-16T07:07:01.627Z,0.00
2023-05-16T07:08:36.344Z,0.00
2023-05-16T07:10:10.184Z,0.00
2023-05-16T07:11:43.563Z,0.00
2023-05-16T07:13:17.048Z,0.00
2023-05-16T07:14:50.181Z,0.00
2023-05-16T07:16:24.603Z,0.00
2023-05-16T07:17:58.625Z,0.00
2023-05-16T07:19:32.183Z,0.00
2023-05-16T07:21:06.235Z,0.00
2023-05-16T07:22:39.978Z,0.00
2023-05-16T07:24:13.700Z,0.00
2023-05-16T07:25:47.116Z,0.00
2023-05-16T07:27:23.347Z,0.00
2023-05-16T07:28:56.982Z,0.00
2023-05-16T07:30:30.898Z,0.00
2023-05-16T07:32:06.618Z,0.00
2023-05-16T07:33:40.300Z,0.00
2023-05-16T07:35:14.072Z,0.00
2023-05-16T07:36:47.588Z,0.00
2023-05-16T07:38:22.812Z,0.00
2023-05-16T07:39:56.280Z,0.00
2023-05-16T07:41:31.042Z,0.00
2023-05-16T07:43:04.525Z,0.00
2023-05-16T07:44:38.097Z,0.00
2023-05-16T07:46:12.307Z,0.00
2023-05-16T07:47:45.825Z,0.00
2023-05-16T07:49:19.313Z,0.00
2023-05-16T07:50:55.910Z,0.00
2023-05-16T07:52:29.548Z,0.00
2023-05-16T07:54:03.258Z,0.00
2023-05-16T07:55:36.477Z,0.00
2023-05-16T07:57:10.041Z,0.00
2023-05-16T07:58:43.458Z,0.00
2023-05-16T08:00:17.839Z,0.00
2023-05-16T08:01:51.153Z,0.00
2023-05-16T08:03:24.602Z,0.00
2023-05-16T08:04:58.334Z,0.00
2023-05-16T08:06:31.854Z,0.00
2023-05-16T08:08:05.025Z,0.00
2023-05-16T08:09:37.925Z,0.00
2023-05-16T08:11:11.768Z,0.00
2023-05-16T08:12:44.695Z,0.00
2023-05-16T08:14:17.669Z,0.00
2023-05-16T08:15:50.937Z,0.00
2023-05-16T08:17:24.322Z,0.00
2023-05-16T08:18:57.649Z,0.00
2023-05-16T08:20:30.723Z,0.00
2023-05-16T08:22:03.941Z,0.00
2023-05-16T08:23:37.167Z,0.00
2023-05-16T08:25:10.355Z,0.00
2023-05-16T08:26:43.554Z,0.00
2023-05-16T08:28:17.086Z,0.00
2023-05-16T08:29:50.529Z,0.00
2023-05-16T08:31:23.442Z,0.00
2023-05-16T08:32:58.760Z,0.00
2023-05-16T08:34:33.045Z,0.00
2023-05-16T08:36:06.586Z,0.00
2023-05-16T08:37:39.593Z,0.00
2023-05-16T08:39:12.964Z,0.00
2023-05-16T08:40:46.359Z,0.00
2023-05-16T08:42:19.605Z,0.00
2023-05-16T08:43:53.072Z,0.00
2023-05-16T08:45:26.831Z,0.00
2023-05-16T08:47:10.885Z,0.00
2023-05-16T08:48:46.995Z,0.00
2023-05-16T08:50:20.209Z,0.00
2023-05-16T08:51:58.508Z,0.00
2023-05-16T08:53:43.365Z,0.00
2023-05-16T08:55:19.869Z,0.00
2023-05-16T08:56:54.596Z,0.00
2023-05-16T08:58:30.212Z,0.00
2023-05-16T09:00:08.494Z,0.00
2023-05-16T09:01:42.666Z,0.00
2023-05-16T09:03:17.162Z,0.00
2023-05-16T09:04:50.995Z,0.00
2023-05-16T09:06:25.374Z,0.00
2023-05-16T09:07:59.011Z,0.00
2023-05-16T09:09:32.182Z,0.00
2023-05-16T09:11:05.426Z,0.00
2023-05-16T09:12:40.289Z,0.00
2023-05-16T09:14:13.448Z,0.00
2023-05-16T09:15:49.314Z,0.00
2023-05-16T09:17:32.213Z,0.00
2023-05-16T09:19:16.871Z,0.00
2023-05-16T09:20:50.655Z,0.00
2023-05-16T09:22:24.693Z,0.00
2023-05-16T09:24:03.137Z,0.00
2023-05-16T09:25:37.374Z,0.00
2023-05-16T09:27:13.244Z,0.00
2023-05-16T09:28:46.648Z,0.00
2023-05-16T09:30:24.940Z,0.00
2023-05-16T09:32:09.628Z,0.00
2023-05-16T09:33:44.860Z,0.00
2023-05-16T09:35:39.111Z,0.00
2023-05-16T09:37:13.864Z,0.00
2023-05-16T09:38:47.533Z,0.00
2023-05-16T09:40:25.014Z,0.00
2023-05-16T09:42:00.128Z,0.00
2023-05-16T09:43:35.629Z,0.00
2023-05-16T09:45:14.886Z,0.00
2023-05-16T09:46:48.181Z,0.00
2023-05-16T09:48:22.230Z,0.00
2023-05-16T09:49:56.915Z,0.00
2023-05-16T09:51:30.242Z,0.00
2023-05-16T09:53:06.026Z,0.00
2023-05-16T09:54:40.022Z,0.00
2023-05-16T09:56:15.971Z,0.00
2023-05-16T09:57:49.655Z,0.00
2023-05-16T09:59:23.008Z,0.00
2023-05-16T10:00:57.854Z,0.00
2023-05-16T10:02:32.203Z,0.00
2023-05-16T10:04:05.784Z,0.00
2023-05-16T10:05:39.826Z,0.00
2023-05-16T10:07:14.291Z,0.00
2023-05-16T10:08:48.322Z,0.00
2023-05-16T10:10:21.701Z,0.00
2023-05-16T10:11:56.119Z,0.00
2023-05-16T10:13:31.258Z,0.00
2023-05-16T10:15:06.417Z,0.00
2023-05-16T10:16:44.616Z,0.00
2023-05-16T10:18:20.129Z,0.00
2023-05-16T10:19:54.879Z,0.00
2023-05-16T10:21:30.383Z,0.00
2023-05-16T10:23:05.142Z,0.00
2023-05-16T10:24:49.117Z,0.00
2023-05-16T10:26:24.231Z,0.00
2023-05-16T10:27:58.673Z,0.00
2023-05-16T10:29:40.002Z,0.00
2023-05-16T10:31:21.360Z,0.00
2023-05-16T10:32:56.968Z,0.00
2023-05-16T10:34:30.023Z,0.00
2023-05-16T10:36:05.826Z,0.00
2023-05-16T10:37:40.158Z,0.00
2023-05-16T10:39:15.634Z,0.00
2023-05-16T10:40:49.850Z,0.00
2023-05-16T10:42:22.953Z,0.00
2023-05-16T10:43:59.563Z,0.00
2023-05-16T10:45:33.144Z,0.00
2023-05-16T10:47:06.837Z,0.00
2023-05-16T10:48:41.210Z,0.00
2023-05-16T10:50:14.511Z,0.00
2023-05-16T10:52:10.508Z,0.00
2023-05-16T10:53:44.743Z,0.00
2023-05-16T10:55:18.712Z,0.00
2023-05-16T10:56:57.606Z,0.00
2023-05-16T10:58:33.737Z,0.00
2023-05-16T11:00:08.567Z,0.00
2023-05-16T11:01:41.953Z,0.00
2023-05-16T11:03:26.032Z,0.00
2023-05-16T11:05:00.929Z,0.00
2023-05-16T11:06:36.596Z,0.00
2023-05-16T11:08:10.303Z,0.00
2023-05-16T11:09:46.089Z,0.00
2023-05-16T11:11:47.298Z,0.00
2023-05-16T11:13:25.310Z,0.00
2023-05-16T11:14:59.517Z,0.00
2023-05-16T11:16:35.204Z,0.00
2023-05-16T11:18:09.666Z,0.00
2023-05-16T11:19:51.436Z,0.00
2023-05-16T11:22:03.219Z,0.00
2023-05-16T11:23:37.620Z,0.00
2023-05-16T11:25:13.714Z,0.00
2023-05-16T11:26:50.063Z,0.00
2023-05-16T11:28:26.367Z,0.00
2023-05-16T11:30:11.368Z,0.00
2023-05-16T11:31:45.203Z,0.00
2023-05-16T11:33:19.549Z,0.00
2023-05-16T11:34:53.689Z,0.00
2023-05-16T11:36:31.233Z,0.00
2023-05-16T11:38:04.850Z,0.00
2023-05-16T11:39:40.816Z,0.00
2023-05-16T11:41:15.910Z,0.00
2023-05-16T11:42:49.209Z,0.00
2023-05-16T11:44:22.534Z,0.00
2023-05-16T11:46:00.127Z,0.00
2023-05-16T11:47:34.008Z,0.00
2023-05-16T11:49:09.921Z,0.00
2023-05-16T11:50:43.242Z,0.00
2023-05-16T11:52:16.823Z,0.00
2023-05-16T11:53:50.562Z,0.00
2023-05-16T11:55:40.435Z,0.00
2023-05-16T11:57:15.128Z,0.00
2023-05-16T11:58:48.715Z,0.00
2023-05-16T12:00:25.506Z,0.00
2023-05-16T12:02:03.837Z,0.00
2023-05-16T12:03:40.555Z,0.00
2023-05-16T12:05:15.060Z,0.00
2023-05-16T12:07:00.502Z,0.00
2023-05-16T12:08:34.265Z,0.00
2023-05-16T12:10:11.982Z,0.00
2023-05-16T12:11:45.907Z,0.00
2023-05-16T12:13:21.476Z,0.00
2023-05-16T12:14:54.964Z,0.00
2023-05-16T12:16:28.907Z,0.00
2023-05-16T12:18:02.971Z,0.00
2023-05-16T12:19:36.972Z,0.00
2023-05-16T12:21:10.152Z,0.00
2023-05-16T12:22:45.050Z,0.00
2023-05-16T12:24:18.269Z,0.00
2023-05-16T12:25:54.347Z,0.00
2023-05-16T12:27:28.646Z,0.00
2023-05-16T12:29:04.610Z,0.00
2023-05-16T12:30:47.412Z,0.00
2023-05-16T12:32:22.069Z,0.00
2023-05-16T12:33:56.177Z,0.00
2023-05-16T12:35:38.501Z,0.00
2023-05-16T12:37:12.028Z,0.00
2023-05-16T12:38:48.567Z,0.00
2023-05-16T12:40:22.464Z,0.00
2023-05-16T12:42:05.530Z,0.00
2023-05-16T12:45:18.531Z,0.00
2023-05-16T12:46:53.320Z,0.00
2023-05-16T12:48:36.234Z,0.00
2023-05-16T12:50:17.972Z,0.00
2023-05-16T12:51:56.473Z,0.00
2023-05-16T12:53:29.890Z,0.00
2023-05-16T12:55:03.192Z,0.00
2023-05-16T12:56:37.427Z,0.00
2023-05-16T12:58:12.299Z,0.00
2023-05-16T12:59:45.894Z,0.00
2023-05-16T13:01:19.364Z,0.00
2023-05-16T13:02:53.457Z,0.00
2023-05-16T13:04:26.806Z,0.00
2023-05-16T13:06:00.478Z,0.00
2023-05-16T13:07:35.146Z,0.00
2023-05-16T13:09:08.702Z,0.00
2023-05-16T13:10:42.091Z,0.00
2023-05-16T13:12:16.165Z,0.00
2023-05-16T13:13:49.875Z,0.00
2023-05-16T13:15:23.334Z,0.00
2023-05-16T13:16:56.499Z,0.00
2023-05-16T13:18:30.024Z,0.00
2023-05-16T13:20:09.226Z,0.00
2023-05-16T13:21:42.566Z,0.00
2023-05-16T13:23:16.453Z,0.00
2023-05-16T13:24:49.969Z,0.00
2023-05-16T13:26:23.276Z,0.00
2023-05-16T13:27:56.554Z,0.00
2023-05-16T13:29:30.094Z,0.00
2023-05-16T13:31:03.454Z,0.00
2023-05-16T13:32:36.891Z,0.00
2023-05-16T13:34:11.013Z,0.00
2023-05-16T13:35:47.072Z,0.00
2023-05-16T13:37:20.701Z,0.00
2023-05-16T13:38:54.286Z,0.00
2023-05-16T13:40:28.590Z,0.00
2023-05-16T13:42:03.422Z,0.00
2023-05-16T13:43:37.119Z,0.00
2023-05-16T13:45:10.538Z,0.00
2023-05-16T13:46:43.752Z,0.00
2023-05-16T13:48:17.464Z,0.00
2023-05-16T13:49:51.117Z,0.00
2023-05-16T13:51:24.657Z,0.00
2023-05-16T13:52:57.908Z,0.00
2023-05-16T13:54:31.670Z,0.00
2023-05-16T13:56:05.275Z,0.00
2023-05-16T13:57:39.404Z,0.00
2023-05-16T13:59:18.351Z,0.00
2023-05-16T14:00:54.844Z,0.00
2023-05-16T14:02:28.251Z,0.00
2023-05-16T14:04:01.942Z,0.00
2023-05-16T14:05:36.376Z,0.00
2023-05-16T14:07:09.919Z,0.00
2023-05-16T14:08:43.680Z,0.00
2023-05-16T14:10:16.766Z,0.00
2023-05-16T14:11:50.099Z,0.00
2023-05-16T14:13:23.577Z,0.00
2023-05-16T14:14:57.414Z,0.00
2023-05-16T14:16:31.609Z,0.00
2023-05-16T14:18:05.783Z,0.00
2023-05-16T14:19:39.434Z,0.00
2023-05-16T14:21:13.553Z,0.00
2023-05-16T14:22:47.266Z,0.00
2023-05-16T14:24:21.491Z,0.00
2023-05-16T14:25:55.191Z,0.00
2023-05-16T14:27:28.697Z,0.00
2023-05-16T14:29:02.182Z,0.00
2023-05-16T14:30:35.473Z,0.00
2023-05-16T14:32:11.559Z,0.00
2023-05-16T14:33:45.355Z,0.00
2023-05-16T14:35:18.904Z,0.00
2023-05-16T14:36:52.120Z,0.00
2023-05-16T14:38:25.904Z,0.00
2023-05-16T14:40:00.161Z,0.00
2023-05-16T14:41:33.706Z,0.00
2023-05-16T14:43:07.221Z,0.00
2023-05-16T14:44:40.668Z,0.00
2023-05-16T14:46:14.677Z,0.00
2023-05-16T14:47:48.783Z,0.00
2023-05-16T14:49:22.394Z,0.00
2023-05-16T14:50:55.947Z,0.00
2023-05-16T14:52:29.356Z,0.00
2023-05-16T14:54:02.967Z,0.00
2023-05-16T14:55:36.533Z,0.00
2023-05-16T14:57:09.836Z,0.00
2023-05-16T14:58:43.245Z,0.00
2023-05-16T15:00:17.947Z,0.00
2023-05-16T15:01:51.919Z,0.00
2023-05-16T15:03:25.882Z,0.00
2023-05-16T15:04:59.396Z,0.00
2023-05-16T15:06:33.161Z,0.00
2023-05-16T15:08:06.901Z,0.00
2023-05-16T15:09:40.504Z,0.00
2023-05-16T15:11:13.927Z,0.00
2023-05-16T15:12:47.838Z,0.00
2023-05-16T15:14:27.533Z,0.00
2023-05-16T15:16:01.702Z,0.00
2023-05-16T15:17:35.494Z,0.00
2023-05-16T15:19:09.791Z,0.00
2023-05-16T15:20:43.719Z,0.00
2023-05-16T15:22:17.368Z,0.00
2023-05-16T15:24:03.197Z,0.00
2023-05-16T15:25:36.641Z,0.00
2023-05-16T15:27:10.219Z,0.00
2023-05-16T15:28:43.478Z,0.00
2023-05-16T15:30:16.598Z,0.00
2023-05-16T15:31:49.948Z,0.00
2023-05-16T15:33:23.506Z,0.00
2023-05-16T15:34:57.221Z,0.00
2023-05-16T15:36:30.664Z,0.00
2023-05-16T15:38:04.646Z,0.00
2023-05-16T15:39:38.169Z,0.00
2023-05-16T15:42:48.668Z,0.00
2023-05-16T15:44:22.030Z,0.00
2023-05-16T15:45:55.500Z,0.00
2023-05-16T15:47:29.232Z,0.00
2023-05-16T15:49:03.211Z,0.00
2023-05-16T15:50:36.801Z,0.00
2023-05-16T15:52:11.219Z,0.00
2023-05-16T15:53:45.351Z,0.00
2023-05-16T15:55:18.851Z,0.00
2023-05-16T15:56:52.974Z,0.00
2023-05-16T15:58:26.466Z,0.00
2023-05-16T16:00:00.139Z,0.00
2023-05-16T16:01:34.339Z,0.00
2023-05-16T16:03:07.997Z,0.00
2023-05-16T16:04:41.571Z,0.00
2023-05-16T16:06:15.657Z,0.00
2023-05-16T16:07:48.931Z,0.00
2023-05-16T16:09:22.391Z,0.00
2023-05-16T16:10:57.891Z,0.00
2023-05-16T16:12:32.281Z,0.00
2023-05-16T16:14:05.965Z,0.00
2023-05-16T16:15:41.701Z,0.00
2023-05-16T16:17:16.900Z,0.00
2023-05-16T16:18:51.245Z,0.00
2023-05-16T16:20:25.835Z,0.00
2023-05-16T16:21:59.910Z,0.00
2023-05-16T16:23:33.560Z,0.00
2023-05-16T16:25:10.123Z,0.00
2023-05-16T16:26:46.235Z,0.00
2023-05-16T16:28:22.359Z,0.00
2023-05-16T16:29:56.645Z,0.00
2023-05-16T16:31:30.290Z,0.00
2023-05-16T16:33:04.419Z,0.00
2023-05-16T16:34:38.357Z,0.00
2023-05-16T16:36:11.938Z,0.00
2023-05-16T16:37:58.250Z,0.10
2023-05-16T16:39:39.981Z,0.00
2023-05-16T16:41:14.972Z,0.00
2023-05-16T16:42:49.036Z,0.00
2023-05-16T16:44:31.629Z,0.10
2023-05-16T16:46:05.553Z,0.00
2023-05-16T16:47:42.309Z,0.00
2023-05-16T16:49:21.471Z,0.00
2023-05-16T16:50:55.375Z,0.00
2023-05-16T16:52:29.683Z,0.00
2023-05-16T16:54:03.436Z,0.00
2023-05-16T16:55:40.600Z,0.00
2023-05-16T16:57:14.599Z,0.00
2023-05-16T16:58:48.116Z,0.00
2023-05-16T17:00:21.795Z,0.00
2023-05-16T17:01:55.636Z,0.00
2023-05-16T17:03:29.258Z,0.00
2023-05-16T17:05:05.476Z,0.00
2023-05-16T17:06:43.019Z,0.00
2023-05-16T17:08:16.860Z,0.00
2023-05-16T17:09:52.233Z,0.00
2023-05-16T17:11:25.905Z,0.00
2023-05-16T17:13:06.205Z,0.00
2023-05-16T17:14:39.627Z,0.05
2023-05-16T17:16:14.708Z,0.00
2023-05-16T17:17:52.002Z,0.00
2023-05-16T17:19:25.682Z,0.10
2023-05-16T17:20:59.553Z,0.00
2023-05-16T17:22:33.961Z,0.00
2023-05-16T17:24:08.444Z,0.00
2023-05-16T17:25:42.344Z,0.00
2023-05-16T17:27:17.562Z,0.00
2023-05-16T17:28:51.473Z,0.00
2023-05-16T17:30:25.303Z,0.00
2023-05-16T17:31:58.833Z,0.00
2023-05-16T17:33:32.377Z,0.00
2023-05-16T17:35:06.584Z,0.00
2023-05-16T17:36:41.537Z,0.00
2023-05-16T17:38:15.580Z,0.00
2023-05-16T17:39:49.385Z,0.00
2023-05-16T17:41:23.117Z,0.00
2023-05-16T17:42:56.989Z,0.00
2023-05-16T17:44:31.210Z,0.00
2023-05-16T17:46:04.694Z,0.00
2023-05-16T17:47:38.387Z,0.00
2023-05-16T17:49:11.886Z,0.00
2023-05-16T17:50:45.632Z,0.00
2023-05-16T17:52:20.371Z,0.00
2023-05-16T17:53:55.547Z,0.00
2023-05-16T17:55:28.988Z,0.00
2023-05-16T17:57:02.654Z,0.00
2023-05-16T17:58:36.868Z,0.00
2023-05-16T18:00:10.535Z,0.00
2023-05-16T18:01:45.187Z,0.00
2023-05-16T18:03:18.585Z,0.00
2023-05-16T18:04:52.348Z,0.00
2023-05-16T18:06:25.558Z,0.00
2023-05-16T18:07:59.354Z,0.00
2023-05-16T18:09:32.758Z,0.00
2023-05-16T18:11:05.837Z,0.00
2023-05-16T18:12:39.356Z,0.00
2023-05-16T18:14:14.564Z,0.00
2023-05-16T18:15:48.196Z,0.00
2023-05-16T18:17:22.389Z,0.00
2023-05-16T18:18:56.017Z,0.00
2023-05-16T18:20:30.172Z,0.00
2023-05-16T18:22:07.339Z,0.00
2023-05-16T18:23:40.508Z,0.00
2023-05-16T18:25:14.286Z,0.05
2023-05-16T18:26:48.743Z,0.00
2023-05-16T18:28:22.164Z,0.00
2023-05-16T18:29:55.900Z,0.00
2023-05-16T18:31:30.893Z,0.05
2023-05-16T18:33:05.344Z,0.00
2023-05-16T18:34:38.786Z,0.00
2023-05-16T18:36:12.367Z,0.00
2023-05-16T18:37:46.212Z,0.00
2023-05-16T18:39:20.983Z,0.08
2023-05-16T18:40:57.760Z,0.00
2023-05-16T18:42:31.928Z,0.00
2023-05-16T18:44:05.867Z,0.00
2023-05-16T18:45:39.205Z,0.00
2023-05-16T18:47:16.173Z,0.00
2023-05-16T18:48:50.163Z,0.00
2023-05-16T18:50:23.848Z,0.00
2023-05-16T18:51:57.033Z,0.00
2023-05-16T18:53:30.600Z,0.00
2023-05-16T18:55:04.915Z,0.03
2023-05-16T18:56:38.173Z,0.00
2023-05-16T18:58:11.974Z,0.00
2023-05-16T18:59:45.776Z,0.00
2023-05-16T19:01:22.853Z,0.00
2023-05-16T19:02:56.360Z,0.00
2023-05-16T19:04:29.887Z,0.08
2023-05-16T19:06:03.457Z,0.10
2023-05-16T19:07:37.433Z,0.00
2023-05-16T19:09:11.319Z,0.00
2023-05-16T19:10:45.621Z,0.00
2023-05-16T19:12:20.221Z,0.08
2023-05-16T19:13:56.036Z,0.00
2023-05-16T19:15:30.021Z,0.10
2023-05-16T19:17:04.334Z,0.00
2023-05-16T19:18:38.754Z,0.00
2023-05-16T19:20:12.600Z,0.00
2023-05-16T19:21:49.128Z,0.00
2023-05-16T19:23:25.175Z,0.10
2023-05-16T19:24:58.973Z,0.00
2023-05-16T19:26:32.787Z,0.00
2023-05-16T19:28:05.982Z,0.10
2023-05-16T19:29:39.040Z,0.05
2023-05-16T19:31:12.358Z,0.00
2023-05-16T19:32:45.971Z,0.10
2023-05-16T19:34:21.609Z,0.10
2023-05-16T19:35:58.895Z,0.00
2023-05-16T19:37:32.293Z,0.00
2023-05-16T19:39:06.435Z,0.03
2023-05-16T19:40:40.108Z,0.00
2023-05-16T19:42:13.420Z,0.08
2023-05-16T19:43:46.944Z,0.00
2023-05-16T19:45:24.085Z,0.10
2023-05-16T19:46:57.521Z,0.10
2023-05-16T19:48:31.460Z,0.00
2023-05-16T19:50:05.439Z,0.00
2023-05-16T19:51:41.944Z,0.05
2023-05-16T19:53:15.838Z,0.00
2023-05-16T19:54:49.168Z,0.00
2023-05-16T19:56:22.628Z,0.00
2023-05-16T19:57:56.331Z,0.10
2023-05-16T19:59:30.168Z,0.10
2023-05-16T20:01:03.543Z,0.10
2023-05-16T20:02:38.022Z,0.10
2023-05-16T20:04:12.060Z,0.00
2023-05-16T20:05:45.782Z,0.00
2023-05-16T20:07:19.379Z,0.00
2023-05-16T20:08:52.723Z,0.00
2023-05-16T20:10:26.226Z,0.10
2023-05-16T20:11:59.737Z,0.05
2023-05-16T20:13:32.937Z,0.00
2023-05-16T20:15:09.220Z,0.10
2023-05-16T20:16:44.380Z,0.00
2023-05-16T20:18:17.868Z,0.00
2023-05-16T20:19:51.518Z,0.00
2023-05-16T20:21:24.977Z,0.00
2023-05-16T20:22:59.113Z,0.10
2023-05-16T20:24:36.973Z,0.00
2023-05-16T20:26:15.228Z,0.00
2023-05-16T20:27:48.859Z,0.05
2023-05-16T20:29:22.418Z,0.10
2023-05-16T20:30:55.980Z,0.10
2023-05-16T20:32:29.765Z,0.03
2023-05-16T20:34:03.619Z,0.00
2023-05-16T20:35:37.168Z,0.10
2023-05-16T20:37:11.322Z,0.10
2023-05-16T20:38:45.125Z,0.00
2023-05-16T20:40:18.930Z,0.10
2023-05-16T20:41:52.968Z,0.10
2023-05-16T20:43:26.911Z,0.10
2023-05-16T20:45:01.650Z,0.10
2023-05-16T20:46:35.261Z,0.00
2023-05-16T20:48:08.997Z,0.10
2023-05-16T20:49:42.317Z,0.10
2023-05-16T20:51:18.544Z,0.00
2023-05-16T20:52:51.736Z,0.10
2023-05-16T20:54:28.593Z,0.10
2023-05-16T20:56:01.844Z,0.10
2023-05-16T20:57:35.096Z,0.10
2023-05-16T20:59:08.615Z,0.08
2023-05-16T21:00:42.863Z,0.10
2023-05-16T21:02:16.309Z,0.10
2023-05-16T21:03:49.639Z,0.10
2023-05-16T21:05:25.628Z,0.00
2023-05-16T21:06:59.728Z,0.00
2023-05-16T21:08:33.245Z,0.10
2023-05-16T21:10:08.246Z,0.10